Time;durP1;ratioP1;P1;durP2;ratioP2;P2;SDS_P1;SDS_P2;PMS_P1;PMS_P2;Temp;Humidity;BMP_temperature;BMP_pressure;BME280_temperature;BME280_humidity;BME280_pressure;Samples;Min_cycle;Max_cycle;Signal;HPM_P1;HPM_P2
2023/09/14 00:00:09;;;;;;;715.60;671.83;;;;;;;13.00;100.00;102283.00;10466911;28;20041;-67
2023/09/14 00:05:11;;;;;;;696.80;654.38;;;;;;;12.88;100.00;102281.69;10451142;28;20099;-68
2023/09/14 00:10:12;;;;;;;703.05;660.65;;;;;;;12.81;100.00;102292.44;10465707;28;20048;-67
2023/09/14 00:15:12;;;;;;;694.10;652.78;;;;;;;12.76;100.00;102290.28;10450482;28;20043;-67
2023/09/14 00:20:32;;;;;;;671.38;630.95;;;;;;;12.86;100.00;102298.22;10450639;28;20059;-67
2023/09/14 00:25:32;;;;;;;661.08;623.00;;;;;;;12.98;100.00;102295.91;10433823;28;20036;-67
2023/09/14 00:30:33;;;;;;;587.70;556.28;;;;;;;13.04;100.00;102281.59;10450982;28;20067;-67
2023/09/14 00:35:33;;;;;;;515.72;489.35;;;;;;;13.13;100.00;102285.13;10432836;28;20037;-67
2023/09/14 00:40:34;;;;;;;481.30;457.58;;;;;;;13.20;100.00;102291.53;10450379;28;20124;-66
2023/09/14 00:45:34;;;;;;;442.13;421.52;;;;;;;13.18;100.00;102285.44;10432757;28;20033;-66
2023/09/14 00:50:34;;;;;;;334.40;320.13;;;;;;;13.06;100.00;102285.00;10432336;28;20039;-68
2023/09/14 00:55:35;;;;;;;261.17;250.20;;;;;;;12.93;100.00;102282.88;10449177;28;20427;-67
2023/09/14 01:00:35;;;;;;;191.40;183.60;;;;;;;12.95;100.00;102282.66;10451349;28;20163;-68
2023/09/14 01:05:36;;;;;;;150.77;144.30;;;;;;;12.96;100.00;102281.66;10473498;28;20025;-67
2023/09/14 01:10:36;;;;;;;122.22;116.68;;;;;;;12.93;100.00;102282.03;10439945;28;20036;-67
2023/09/14 01:15:43;;;;;;;102.03;97.68;;;;;;;12.88;100.00;102279.81;10457988;28;20392;-67
2023/09/14 01:21:01;;;;;;;105.05;100.40;;;;;;;12.84;100.00;102283.09;10456866;28;20388;-67
2023/09/14 01:26:02;;;;;;;92.70;88.28;;;;;;;12.73;100.00;102290.63;10472802;28;20033;-67
2023/09/14 01:31:02;;;;;;;108.85;104.18;;;;;;;12.66;100.00;102267.88;10457324;28;20020;-67
2023/09/14 01:36:12;;;;;;;134.65;128.82;;;;;;;12.58;100.00;102278.81;10455978;28;20106;-67
2023/09/14 01:41:12;;;;;;;169.70;162.00;;;;;;;12.48;100.00;102267.31;10456974;28;20063;-67
2023/09/14 01:46:13;;;;;;;206.80;198.10;;;;;;;12.48;100.00;102276.31;10472158;28;20504;-68
2023/09/14 01:51:13;;;;;;;235.55;225.80;;;;;;;12.47;100.00;102276.47;10454685;28;20033;-67
2023/09/14 01:56:13;;;;;;;321.55;307.85;;;;;;;12.39;100.00;102274.66;10454494;28;20048;-66
2023/09/14 02:01:14;;;;;;;357.02;341.50;;;;;;;12.31;100.00;102267.34;10438122;28;20037;-67
2023/09/14 02:06:14;;;;;;;391.77;374.27;;;;;;;12.23;100.00;102269.28;10455934;28;20511;-67
2023/09/14 02:11:15;;;;;;;435.08;414.80;;;;;;;12.13;100.00;102263.22;10455657;28;20037;-68
2023/09/14 02:16:16;;;;;;;458.55;437.40;;;;;;;12.01;100.00;102260.00;10453932;28;20111;-66
2023/09/14 02:21:16;;;;;;;508.85;484.40;;;;;;;11.95;100.00;102256.09;10454584;28;20036;-67
2023/09/14 02:26:17;;;;;;;532.03;505.90;;;;;;;11.94;100.00;102256.28;10436926;28;20036;-67
2023/09/14 02:31:19;;;;;;;550.25;522.25;;;;;;;11.93;100.00;102251.88;10454985;28;20037;-68
2023/09/14 02:36:21;;;;;;;569.70;540.65;;;;;;;11.90;100.00;102254.94;10454821;28;20481;-67
2023/09/14 02:41:21;;;;;;;564.40;535.80;;;;;;;11.89;100.00;102247.81;10436117;28;20278;-68
2023/09/14 02:46:22;;;;;;;604.28;572.30;;;;;;;11.90;100.00;102254.94;10453722;28;20044;-67
2023/09/14 02:51:23;;;;;;;622.08;588.17;;;;;;;11.89;100.00;102245.94;10469619;28;20036;-68
2023/09/14 02:56:23;;;;;;;632.17;597.80;;;;;;;11.89;100.00;102251.38;10454173;28;20064;-67
2023/09/14 03:01:23;;;;;;;654.17;617.78;;;;;;;11.88;100.00;102246.13;10452750;28;20055;-66
2023/09/14 03:06:25;;;;;;;666.88;628.72;;;;;;;11.83;100.00;102244.72;10452417;28;20379;-67
2023/09/14 03:11:26;;;;;;;686.08;646.08;;;;;;;11.76;100.00;102242.88;10453416;28;20044;-67
2023/09/14 03:16:26;;;;;;;710.97;669.38;;;;;;;11.74;100.00;102240.38;10435446;28;20039;-67
2023/09/14 03:21:27;;;;;;;709.38;667.53;;;;;;;11.68;100.00;102241.03;10435365;28;20055;-67
2023/09/14 03:26:28;;;;;;;711.35;669.53;;;;;;;11.64;100.00;102231.53;10452086;28;20510;-67
2023/09/14 03:31:29;;;;;;;711.50;669.22;;;;;;;11.64;100.00;102239.69;10452761;28;20040;-67
2023/09/14 03:36:29;;;;;;;709.25;667.35;;;;;;;11.69;100.00;102240.03;10468207;28;20120;-67
2023/09/14 03:41:29;;;;;;;701.25;659.55;;;;;;;11.70;100.00;102249.84;10468224;28;20603;-67
2023/09/14 03:46:30;;;;;;;713.13;670.58;;;;;;;11.71;100.00;102242.53;10434495;28;20116;-67
2023/09/14 03:51:30;;;;;;;690.30;649.70;;;;;;;11.74;100.00;102234.06;10450334;28;20102;-67
2023/09/14 03:56:31;;;;;;;709.75;667.20;;;;;;;11.79;100.00;102235.25;10450782;28;20060;-68
2023/09/14 04:01:31;;;;;;;690.17;649.33;;;;;;;11.82;100.00;102229.47;10451742;28;20093;-67
2023/09/14 04:06:32;;;;;;;654.78;616.83;;;;;;;11.96;100.00;102229.81;10466401;28;20091;-67
2023/09/14 04:11:32;;;;;;;634.28;597.58;;;;;;;11.98;100.00;102223.19;10451501;28;20051;-68
2023/09/14 04:16:33;;;;;;;597.40;564.53;;;;;;;11.99;100.00;102226.75;10451781;28;20417;-67
2023/09/14 04:21:33;;;;;;;547.90;519.40;;;;;;;11.98;100.00;102216.91;10432798;28;20037;-67
2023/09/14 04:26:34;;;;;;;440.42;419.45;;;;;;;12.02;100.00;102226.41;10451149;28;20033;-67
2023/09/14 04:31:34;;;;;;;309.00;295.70;;;;;;;12.06;100.00;102230.44;10451052;28;20041;-68
2023/09/14 04:36:37;;;;;;;227.55;218.00;;;;;;;12.12;100.00;102229.75;10469540;28;20539;-70
2023/09/14 04:41:37;;;;;;;185.23;177.50;;;;;;;12.12;100.00;102232.47;10459547;28;20048;-67
2023/09/14 04:46:38;;;;;;;161.48;154.07;;;;;;;12.10;100.00;102234.53;10459336;28;20037;-67
2023/09/14 04:51:38;;;;;;;235.38;224.57;;;;;;;12.10;100.00;102234.53;10456496;28;20059;-67
2023/09/14 04:56:38;;;;;;;328.73;313.30;;;;;;;12.09;100.00;102236.41;10458737;28;20406;-66
2023/09/14 05:01:39;;;;;;;437.80;417.20;;;;;;;12.13;100.00;102241.47;10440292;28;20033;-67
2023/09/14 05:06:39;;;;;;;515.60;490.38;;;;;;;12.12;100.00;102239.78;10450403;28;20075;-66
2023/09/14 05:11:40;;;;;;;601.78;569.63;;;;;;;12.14;100.00;102235.88;10464917;28;20080;-66
2023/09/14 05:16:40;;;;;;;704.40;662.65;;;;;;;12.13;100.00;102234.19;10481485;28;20036;-66
2023/09/14 05:21:40;;;;;;;785.88;735.67;;;;;;;12.16;100.00;102238.41;10480644;28;20458;-66
2023/09/14 05:26:41;;;;;;;754.53;707.45;;;;;;;12.16;100.00;102233.00;10498670;28;20123;-66
2023/09/14 05:31:41;;;;;;;813.38;760.22;;;;;;;12.21;100.00;102234.13;10464310;28;20464;-68
2023/09/14 05:36:42;;;;;;;818.03;765.13;;;;;;;12.29;100.00;102238.69;10482571;28;20029;-67
2023/09/14 05:41:43;;;;;;;875.95;818.10;;;;;;;12.33;100.00;102238.16;10500158;28;20072;-66
2023/09/14 05:46:44;;;;;;;877.65;819.13;;;;;;;12.47;100.00;102239.28;10480230;28;20460;-66
2023/09/14 05:51:44;;;;;;;880.13;821.33;;;;;;;12.62;100.00;102247.53;10497004;28;20032;-67
2023/09/14 05:56:45;;;;;;;860.15;802.33;;;;;;;12.74;100.00;102246.09;10498530;28;20480;-66
2023/09/14 06:01:45;;;;;;;857.17;800.47;;;;;;;12.88;100.00;102255.34;10480259;28;20172;-67
2023/09/14 06:06:45;;;;;;;823.15;769.08;;;;;;;13.19;100.00;102254.47;10479617;28;20086;-66
2023/09/14 06:11:46;;;;;;;828.70;774.85;;;;;;;13.61;100.00;102255.84;10497994;28;20072;-67
2023/09/14 06:16:46;;;;;;;798.28;746.35;;;;;;;14.35;100.00;102255.88;10479278;28;20538;-66
2023/09/14 06:21:47;;;;;;;710.70;667.25;;;;;;;14.39;100.00;102254.50;10496571;28;20083;-68
2023/09/14 06:26:47;;;;;;;611.00;576.72;;;;;;;14.61;100.00;102261.75;10495992;28;20475;-67
2023/09/14 06:31:48;;;;;;;405.38;386.88;;;;;;;14.46;100.00;102263.59;10462092;28;20032;-68
2023/09/14 06:36:48;;;;;;;287.00;274.42;;;;;;;14.41;100.00;102266.88;10497268;28;20329;-67
2023/09/14 06:41:49;;;;;;;280.83;268.50;;;;;;;14.85;100.00;102257.81;10496318;28;20440;-67
2023/09/14 06:46:49;;;;;;;211.50;201.90;;;;;;;15.34;100.00;102267.94;10495982;28;20108;-67
2023/09/14 06:51:50;;;;;;;151.88;145.23;;;;;;;15.71;100.00;102265.16;10477479;28;20045;-67
2023/09/14 06:56:50;;;;;;;110.35;104.80;;;;;;;15.72;100.00;102259.47;10494906;28;20102;-68
2023/09/14 07:01:51;;;;;;;176.80;169.10;;;;;;;16.37;100.00;102256.50;10476983;28;20040;-67
2023/09/14 07:06:51;;;;;;;223.20;213.05;;;;;;;17.03;100.00;102248.56;10494647;28;20033;-67
2023/09/14 07:11:52;;;;;;;355.58;339.88;;;;;;;17.80;100.00;102258.13;10460545;28;20491;-67
2023/09/14 07:16:52;;;;;;;445.90;424.40;;;;;;;17.85;100.00;102258.34;10460434;28;20068;-67
2023/09/14 07:21:54;;;;;;;415.25;396.45;;;;;;;17.92;100.00;102254.75;10476230;28;20032;-68
2023/09/14 07:26:55;;;;;;;548.55;519.47;;;;;;;18.34;100.00;102259.69;10476700;28;20061;-68
2023/09/14 07:31:57;;;;;;;581.42;550.15;;;;;;;18.54;100.00;102262.38;10476410;28;20078;-67
2023/09/14 07:36:58;;;;;;;657.92;620.10;;;;;;;19.10;100.00;102266.31;10494274;28;20036;-70
2023/09/14 07:41:58;;;;;;;681.38;640.78;;;;;;;19.94;100.00;102275.16;10492002;28;20117;-67
2023/09/14 07:46:58;;;;;;;719.08;675.03;;;;;;;20.41;100.00;102272.75;10492984;28;20060;-66
2023/09/14 07:52:00;;;;;;;735.17;689.83;;;;;;;20.29;100.00;102277.34;10474978;28;20060;-67
2023/09/14 07:57:00;;;;;;;792.58;740.88;;;;;;;21.04;100.00;102268.78;10492710;28;20503;-67
2023/09/14 08:02:01;;;;;;;802.28;750.67;;;;;;;21.78;100.00;102274.84;10492606;28;20374;-68
2023/09/14 08:07:01;;;;;;;772.72;723.45;;;;;;;21.47;100.00;102271.31;10475892;28;20024;-68
2023/09/14 08:12:02;;;;;;;791.72;740.35;;;;;;;21.21;100.00;102275.31;10478433;28;20105;-68
2023/09/14 08:17:02;;;;;;;786.40;735.92;;;;;;;21.79;99.37;102271.00;10493857;28;20028;-67
2023/09/14 08:22:04;;;;;;;756.92;709.85;;;;;;;22.28;91.55;102272.44;10494776;28;20036;-68
2023/09/14 08:27:04;;;;;;;763.38;715.55;;;;;;;21.48;88.05;102270.25;10475097;28;20048;-67
2023/09/14 08:32:05;;;;;;;783.97;733.97;;;;;;;21.56;90.29;102258.88;10459313;28;20044;-68
2023/09/14 08:37:10;;;;;;;761.67;713.67;;;;;;;22.54;86.11;102269.38;10459704;28;20040;-67
2023/09/14 08:42:11;;;;;;;773.58;724.30;;;;;;;23.06;77.56;102269.31;10474646;28;20107;-68
2023/09/14 08:47:12;;;;;;;772.72;724.25;;;;;;;23.27;73.13;102268.63;10473978;28;20116;-67
2023/09/14 08:52:12;;;;;;;768.42;719.95;;;;;;;24.46;80.10;102272.13;10457253;28;20028;-68
2023/09/14 08:57:13;;;;;;;747.22;700.80;;;;;;;25.45;84.48;102262.66;10448832;28;20101;-66
2023/09/14 09:02:13;;;;;;;743.17;698.03;;;;;;;24.95;71.41;102259.13;10432424;28;20068;-68
2023/09/14 09:07:14;;;;;;;760.38;713.38;;;;;;;24.75;65.37;102268.03;10450192;28;20028;-67
2023/09/14 09:12:14;;;;;;;688.03;648.65;;;;;;;25.39;76.14;102269.25;10447953;28;20512;-68
2023/09/14 09:17:15;;;;;;;711.75;670.67;;;;;;;25.51;56.49;102256.06;10448558;28;20060;-67
2023/09/14 09:22:15;;;;;;;680.65;641.85;;;;;;;25.14;64.32;102259.59;10467942;28;20036;-66
2023/09/14 09:27:26;;;;;;;673.20;635.47;;;;;;;25.37;60.45;102257.63;10457415;28;20433;-66
2023/09/14 09:32:26;;;;;;;689.63;650.35;;;;;;;25.69;64.08;102250.09;10472195;28;20090;-67
2023/09/14 09:37:27;;;;;;;695.63;655.35;;;;;;;26.13;62.31;102258.19;10456152;28;20036;-68
2023/09/14 09:42:28;;;;;;;742.95;698.05;;;;;;;26.93;60.55;102257.94;10439132;28;20040;-67
2023/09/14 09:47:32;;;;;;;733.50;689.00;;;;;;;27.07;61.45;102247.94;10455880;28;20029;-66
2023/09/14 09:52:33;;;;;;;780.70;731.25;;;;;;;26.31;69.61;102256.03;10454329;28;20029;-68
2023/09/14 09:57:35;;;;;;;784.00;734.55;;;;;;;25.94;61.12;102249.47;10454695;28;20405;-68
2023/09/14 10:02:36;;;;;;;824.85;772.05;;;;;;;25.87;54.31;102236.91;10438205;28;20092;-67
2023/09/14 10:07:39;;;;;;;784.20;735.05;;;;;;;24.45;64.00;102242.78;10455709;28;20037;-68
2023/09/14 10:12:40;;;;;;;771.42;722.97;;;;;;;26.48;59.24;102226.13;10456483;28;20033;-69
2023/09/14 10:17:41;;;;;;;772.92;724.95;;;;;;;25.43;60.77;102229.66;10438038;28;20457;-67
2023/09/14 10:22:41;;;;;;;755.42;708.55;;;;;;;23.90;65.63;102231.50;10453864;28;20660;-67
2023/09/14 10:27:42;;;;;;;764.60;717.53;;;;;;;24.18;64.02;102237.13;10437438;28;20047;-67
2023/09/14 10:32:43;;;;;;;704.67;663.40;;;;;;;25.81;52.15;102226.88;10452740;28;20064;-68
2023/09/14 10:37:45;;;;;;;683.67;644.00;;;;;;;26.70;53.17;102212.00;10454695;28;20032;-68
2023/09/14 10:42:45;;;;;;;686.30;647.03;;;;;;;27.59;52.77;102219.03;10437360;28;20108;-69
2023/09/14 10:47:48;;;;;;;697.95;657.70;;;;;;;27.65;48.47;102219.88;10454949;28;20196;-68
2023/09/14 10:52:48;;;;;;;687.60;648.65;;;;;;;27.23;47.66;102212.66;10454361;28;20029;-67
2023/09/14 10:57:49;;;;;;;671.72;633.90;;;;;;;27.13;46.67;102215.41;10486571;28;20041;-68
2023/09/14 11:02:56;;;;;;;634.50;599.70;;;;;;;27.24;45.51;102213.50;10460762;28;20032;-68
2023/09/14 11:08:00;;;;;;;661.75;624.40;;;;;;;27.45;48.30;102208.78;10494809;28;20127;-68
2023/09/14 11:13:18;;;;;;;692.72;652.97;;;;;;;28.08;49.44;102191.66;10494325;28;20028;-68
2023/09/14 11:18:20;;;;;;;720.17;677.20;;;;;;;28.02;46.89;102191.69;10476546;28;20028;-67
2023/09/14 11:23:22;;;;;;;938.22;862.25;;;;;;;28.29;42.31;102187.66;10476274;28;20043;-68
2023/09/14 11:28:22;;;;;;;815.38;763.55;;;;;;;28.33;41.15;102188.75;10459688;28;20072;-67
2023/09/14 11:33:23;;;;;;;740.58;695.45;;;;;;;28.81;45.98;102191.00;10494108;28;20075;-67
2023/09/14 11:38:24;;;;;;;861.10;804.45;;;;;;;27.04;41.03;102197.63;10458654;28;20417;-68
2023/09/14 11:43:26;;;;;;;845.58;791.03;;;;;;;25.82;47.84;102179.44;10459026;28;20031;-68
2023/09/14 11:48:29;;;;;;;914.88;852.42;;;;;;;27.98;41.85;102181.38;10476249;28;20032;-69
2023/09/14 11:53:35;;;;;;;859.72;803.90;;;;;;;28.90;44.85;102183.69;10459049;28;20134;-68
2023/09/14 11:58:35;;;;;;;827.20;774.57;;;;;;;29.02;41.52;102178.59;10492641;28;20443;-68
2023/09/14 12:03:38;;;;;;;906.45;845.25;;;;;;;28.51;38.81;102179.78;10492681;28;20036;-69
2023/09/14 12:08:49;;;;;;;871.42;814.53;;;;;;;28.14;42.00;102188.56;10457449;28;20448;-67
2023/09/14 12:13:53;;;;;;;854.50;799.28;;;;;;;28.32;43.51;102181.53;10474863;28;20089;-68
2023/09/14 12:18:54;;;;;;;868.45;811.88;;;;;;;28.69;39.08;102166.28;10457812;28;20075;-68
2023/09/14 12:23:54;;;;;;;889.63;830.95;;;;;;;28.73;40.56;102172.94;10473832;28;20239;-68
2023/09/14 12:28:56;;;;;;;971.75;904.80;;;;;;;28.93;41.82;102161.63;10457223;28;20029;-69
2023/09/14 12:33:57;;;;;;;946.55;880.65;;;;;;;29.00;42.66;102158.50;10474537;28;20136;-69
2023/09/14 12:38:57;;;;;;;878.72;821.28;;;;;;;29.69;44.76;102164.88;10474279;28;20029;-68
2023/09/14 12:43:59;;;;;;;851.13;796.30;;;;;;;28.01;40.25;102164.94;10492259;28;20082;-69
2023/09/14 12:49:00;;;;;;;819.22;767.03;;;;;;;27.57;41.64;102154.50;10474682;28;20036;-67
2023/09/14 12:54:02;;;;;;;824.22;771.40;;;;;;;27.91;41.75;102153.84;10473626;28;20037;-68
2023/09/14 12:59:04;;;;;;;810.20;759.25;;;;;;;26.55;42.57;102153.66;10480265;28;20106;-68
2023/09/14 13:04:05;;;;;;;865.05;809.03;;;;;;;25.42;47.77;102141.16;10465786;28;20083;-68
2023/09/14 13:09:08;;;;;;;903.75;844.13;;;;;;;24.85;49.19;102139.03;10449004;28;20388;-67
2023/09/14 13:14:19;;;;;;;871.42;814.88;;;;;;;24.17;48.59;102139.41;10500447;28;20037;-67
2023/09/14 13:19:25;;;;;;;735.33;691.05;;;;;;;23.42;49.56;102135.31;10467733;28;20033;-68
2023/09/14 13:24:25;;;;;;;755.70;709.43;;;;;;;23.37;51.17;102127.81;10501233;28;20025;-67
2023/09/14 13:29:26;;;;;;;760.03;713.15;;;;;;;23.35;49.53;102121.69;10466879;28;20534;-68
2023/09/14 13:34:26;;;;;;;693.13;652.65;;;;;;;24.25;47.12;102114.06;10500398;28;20059;-68
2023/09/14 13:39:27;;;;;;;678.67;639.58;;;;;;;24.23;46.99;102107.94;10500233;28;20043;-66
2023/09/14 13:44:27;;;;;;;684.45;645.25;;;;;;;23.39;47.98;102108.22;10500169;28;20174;-68
2023/09/14 13:49:29;;;;;;;688.72;649.33;;;;;;;22.98;49.59;102102.88;10465592;28;20145;-68
2023/09/14 13:54:30;;;;;;;683.33;644.22;;;;;;;24.28;45.37;102099.69;10482998;28;20063;-69
2023/09/14 13:59:30;;;;;;;682.60;643.65;;;;;;;24.89;46.19;102091.16;10483959;28;20052;-68
2023/09/14 14:04:31;;;;;;;731.83;687.97;;;;;;;25.24;42.81;102087.84;10500473;28;20064;-69
2023/09/14 14:09:31;;;;;;;742.58;697.38;;;;;;;25.39;45.42;102083.47;10498983;28;20028;-67
2023/09/14 14:14:32;;;;;;;800.13;749.95;;;;;;;25.35;45.52;102085.13;10483139;28;20496;-68
2023/09/14 14:19:33;;;;;;;835.05;780.30;;;;;;;25.91;42.17;102080.69;10483376;28;20148;-67
2023/09/14 14:24:33;;;;;;;756.97;710.63;;;;;;;25.68;46.34;102068.06;10481712;28;20044;-68
2023/09/14 14:29:34;;;;;;;740.55;696.05;;;;;;;25.79;45.70;102071.75;10481331;28;20056;-68
2023/09/14 14:34:34;;;;;;;802.17;751.25;;;;;;;25.93;42.62;102066.53;10464454;28;20530;-67
2023/09/14 14:39:35;;;;;;;830.45;777.63;;;;;;;25.58;43.38;102065.25;10480652;28;20028;-67
2023/09/14 14:44:35;;;;;;;868.35;811.65;;;;;;;25.57;45.97;102062.78;10483354;28;20039;-68
2023/09/14 14:49:35;;;;;;;864.53;808.58;;;;;;;25.54;45.13;102060.53;10464420;28;20094;-68
2023/09/14 14:54:36;;;;;;;883.95;826.13;;;;;;;24.77;46.39;102054.47;10496298;28;20064;-68
2023/09/14 14:59:36;;;;;;;865.20;808.47;;;;;;;24.21;47.90;102053.91;10480114;28;20056;-68
2023/09/14 15:04:37;;;;;;;803.40;752.67;;;;;;;23.41;46.30;102059.84;10479018;28;20124;-68
2023/09/14 15:09:37;;;;;;;688.00;649.15;;;;;;;22.95;48.07;102048.16;10479046;28;20289;-68
2023/09/14 15:14:37;;;;;;;749.38;702.50;;;;;;;22.75;49.62;102050.56;10459931;28;20036;-67
2023/09/14 15:19:38;;;;;;;655.40;618.78;;;;;;;22.36;52.29;102055.94;10475931;28;20047;-68
2023/09/14 15:24:39;;;;;;;575.13;545.90;;;;;;;22.13;52.57;102045.00;10475763;28;20080;-68
2023/09/14 15:29:39;;;;;;;595.53;564.70;;;;;;;22.28;51.69;102037.06;10493675;28;20029;-69
2023/09/14 15:34:39;;;;;;;607.15;575.40;;;;;;;22.56;51.79;102038.94;10476197;28;20036;-67
2023/09/14 15:39:40;;;;;;;609.95;577.65;;;;;;;22.72;52.81;102038.09;10476330;28;20052;-68
2023/09/14 15:44:41;;;;;;;619.63;586.25;;;;;;;22.72;53.10;102042.78;10476281;28;20040;-68
2023/09/14 15:49:41;;;;;;;617.70;584.47;;;;;;;22.65;53.14;102037.41;10493995;28;20509;-69
2023/09/14 15:54:42;;;;;;;635.63;601.38;;;;;;;22.56;53.51;102033.41;10492364;28;20080;-68
2023/09/14 15:59:42;;;;;;;641.92;607.03;;;;;;;22.26;54.59;102028.16;10493333;28;20139;-68
2023/09/14 16:04:43;;;;;;;625.08;591.40;;;;;;;22.23;54.46;102036.94;10493777;28;20124;-68
2023/09/14 16:09:43;;;;;;;631.00;596.88;;;;;;;22.22;55.00;102029.75;10475590;28;20086;-68
2023/09/14 16:14:44;;;;;;;688.72;648.88;;;;;;;22.06;55.23;102029.44;10474454;28;20066;-67
2023/09/14 16:19:45;;;;;;;715.97;673.92;;;;;;;21.69;57.75;102034.50;10474420;28;20097;-68
2023/09/14 16:24:46;;;;;;;713.13;670.60;;;;;;;21.14;62.04;102030.25;10491558;28;20065;-68
2023/09/14 16:29:47;;;;;;;747.33;701.42;;;;;;;20.89;63.45;102027.75;10474508;28;20128;-67
2023/09/14 16:34:47;;;;;;;696.83;656.17;;;;;;;20.76;64.66;102029.91;10492992;28;20032;-67
2023/09/14 16:39:47;;;;;;;712.90;671.08;;;;;;;20.66;65.61;102017.56;10492100;28;20539;-67
2023/09/14 16:44:48;;;;;;;687.30;647.88;;;;;;;20.65;64.77;102015.88;10473307;28;20032;-66
2023/09/14 16:49:48;;;;;;;698.58;658.15;;;;;;;20.52;67.85;102020.78;10474148;28;20032;-68
2023/09/14 16:54:49;;;;;;;746.15;700.50;;;;;;;20.18;73.03;102020.41;10472672;28;20088;-69
2023/09/14 16:59:50;;;;;;;690.75;651.22;;;;;;;20.13;69.14;102017.53;10491954;28;20056;-67
2023/09/14 17:04:51;;;;;;;702.00;661.08;;;;;;;20.09;69.64;102019.91;10457526;28;20082;-67
2023/09/14 17:09:52;;;;;;;671.53;633.78;;;;;;;20.00;68.73;102013.06;10457316;28;20043;-69
2023/09/14 17:14:52;;;;;;;694.47;653.72;;;;;;;19.87;68.96;102005.84;10473949;28;20045;-68
2023/09/14 17:19:53;;;;;;;695.92;655.85;;;;;;;19.74;68.22;102012.34;10472951;28;20036;-67
2023/09/14 17:24:53;;;;;;;695.90;655.60;;;;;;;19.58;69.56;102012.94;10473110;28;20024;-69
2023/09/14 17:29:54;;;;;;;693.40;653.40;;;;;;;19.45;70.13;101999.38;10491246;28;20036;-68
2023/09/14 17:34:54;;;;;;;700.45;659.58;;;;;;;19.32;71.19;102014.09;10490688;28;20033;-67
2023/09/14 17:39:55;;;;;;;692.45;652.13;;;;;;;19.20;71.26;102000.28;10456721;28;20493;-66
2023/09/14 17:44:55;;;;;;;693.35;653.53;;;;;;;19.02;70.68;102003.88;10478217;28;20096;-66
2023/09/14 17:49:58;;;;;;;695.80;654.55;;;;;;;18.81;70.72;102002.38;10498257;28;20055;-67
2023/09/14 17:54:58;;;;;;;692.13;651.17;;;;;;;18.62;71.40;102000.63;10497782;28;20102;-68
2023/09/14 17:59:59;;;;;;;693.33;653.53;;;;;;;18.48;71.17;102007.31;10480023;28;20511;-67
2023/09/14 18:04:59;;;;;;;686.10;646.13;;;;;;;18.29;71.56;102009.97;10496629;28;20468;-68
2023/09/14 18:10:00;;;;;;;700.88;659.72;;;;;;;18.16;71.82;102010.06;10479423;28;20051;-68
2023/09/14 18:15:00;;;;;;;701.40;659.83;;;;;;;18.01;72.53;102009.53;10479182;28;20150;-68
2023/09/14 18:20:07;;;;;;;716.80;674.53;;;;;;;17.86;73.07;102010.63;10479057;28;20032;-68
2023/09/14 18:25:08;;;;;;;743.20;698.38;;;;;;;17.72;74.29;102009.00;10497118;28;20024;-66
2023/09/14 18:30:08;;;;;;;762.83;715.40;;;;;;;17.57;75.28;102006.53;10479798;28;20376;-67
2023/09/14 18:35:09;;;;;;;731.03;686.65;;;;;;;17.48;77.36;102018.78;10497924;28;20043;-68
2023/09/14 18:40:10;;;;;;;735.33;690.55;;;;;;;17.40;78.73;102022.63;10497796;28;20037;-66
2023/09/14 18:45:11;;;;;;;741.30;695.97;;;;;;;17.30;79.08;102027.72;10499534;28;20093;-65
2023/09/14 18:50:11;;;;;;;767.60;719.35;;;;;;;17.18;79.49;102026.69;10496753;28;20032;-66
2023/09/14 18:55:12;;;;;;;735.88;689.38;;;;;;;17.11;81.12;102028.59;10475943;28;20140;-67
2023/09/14 19:00:12;;;;;;;751.83;705.28;;;;;;;17.00;81.34;102027.31;10479872;28;20072;-68
2023/09/14 19:05:13;;;;;;;759.30;711.83;;;;;;;16.88;83.09;102029.03;10460853;28;20451;-67
2023/09/14 19:10:15;;;;;;;761.60;713.78;;;;;;;16.82;88.20;102028.00;10477034;28;20028;-64
2023/09/14 19:15:15;;;;;;;715.65;672.03;;;;;;;16.81;89.26;102037.22;10459931;28;20036;-66
2023/09/14 19:20:16;;;;;;;726.55;682.53;;;;;;;16.81;92.72;102039.97;10494392;28;20384;-66
2023/09/14 19:25:17;;;;;;;738.25;693.50;;;;;;;16.77;91.88;102046.94;10459240;28;20094;-65
2023/09/14 19:30:17;;;;;;;723.50;679.70;;;;;;;16.69;90.97;102036.19;10493866;28;20113;-66
2023/09/14 19:35:17;;;;;;;733.15;688.75;;;;;;;16.61;92.40;102036.38;10493091;28;20044;-66
2023/09/14 19:40:18;;;;;;;716.20;673.30;;;;;;;16.57;92.59;102033.22;10475357;28;20036;-67
2023/09/14 19:45:18;;;;;;;688.47;647.83;;;;;;;16.49;95.50;102030.69;10475159;28;20039;-66
2023/09/14 19:50:20;;;;;;;749.63;703.38;;;;;;;16.43;99.71;102032.38;10475146;28;20043;-68
2023/09/14 19:55:20;;;;;;;768.70;720.00;;;;;;;16.36;97.78;102022.47;10474090;28;20056;-68
2023/09/14 20:00:21;;;;;;;750.13;703.35;;;;;;;16.33;98.19;102023.72;10457992;28;20070;-68
2023/09/14 20:05:21;;;;;;;767.70;718.72;;;;;;;16.33;100.00;102025.63;10492733;28;20041;-66
2023/09/14 20:10:22;;;;;;;786.90;736.30;;;;;;;16.26;100.00;102022.88;10492157;28;20476;-67
2023/09/14 20:15:23;;;;;;;783.45;732.95;;;;;;;16.20;100.00;102020.97;10492650;28;20060;-67
2023/09/14 20:20:24;;;;;;;778.65;728.97;;;;;;;16.15;100.00;102021.59;10458109;28;20040;-66
2023/09/14 20:25:25;;;;;;;781.30;730.83;;;;;;;16.10;100.00;102021.38;10474151;28;20543;-67
2023/09/14 20:30:26;;;;;;;805.35;753.13;;;;;;;16.03;100.00;102020.53;10441201;28;20417;-67
2023/09/14 20:35:26;;;;;;;781.05;731.17;;;;;;;16.10;100.00;102015.06;10474629;28;20336;-68
2023/09/14 20:40:27;;;;;;;799.80;748.03;;;;;;;16.12;100.00;102018.44;10474436;28;20112;-68
2023/09/14 20:45:28;;;;;;;797.75;745.90;;;;;;;16.07;100.00;102010.84;10491402;28;20464;-67
2023/09/14 20:50:28;;;;;;;805.03;752.30;;;;;;;15.99;100.00;102011.06;10491871;28;20048;-67
2023/09/14 20:55:29;;;;;;;796.92;745.28;;;;;;;15.90;100.00;102010.41;10473296;28;20059;-66
2023/09/14 21:00:33;;;;;;;788.05;736.70;;;;;;;15.81;100.00;101995.25;10491893;28;20446;-66
2023/09/14 21:05:33;;;;;;;807.40;754.67;;;;;;;15.76;100.00;102000.47;10491639;28;20036;-67
2023/09/14 21:10:35;;;;;;;808.17;755.72;;;;;;;15.69;100.00;101996.88;10491962;28;20041;-66
2023/09/14 21:15:36;;;;;;;810.05;757.33;;;;;;;15.59;100.00;102003.53;10493200;28;20111;-66
2023/09/14 21:20:37;;;;;;;808.65;755.40;;;;;;;15.54;100.00;102000.59;10499938;28;20455;-67
2023/09/14 21:25:38;;;;;;;807.53;755.10;;;;;;;15.52;100.00;102001.84;10481549;28;20076;-67
2023/09/14 21:30:38;;;;;;;813.55;760.33;;;;;;;15.48;100.00;101993.22;10481196;28;20055;-67
2023/09/14 21:35:39;;;;;;;824.45;770.85;;;;;;;15.46;100.00;101989.81;10497755;28;20055;-67
2023/09/14 21:40:39;;;;;;;804.58;752.05;;;;;;;15.46;100.00;101994.44;10480281;28;20374;-68
2023/09/14 21:45:40;;;;;;;803.80;751.53;;;;;;;15.41;100.00;101983.28;10499026;28;20359;-68
2023/09/14 21:50:40;;;;;;;796.65;745.08;;;;;;;15.38;100.00;101987.28;10447620;28;20029;-67
2023/09/14 21:55:41;;;;;;;786.70;735.13;;;;;;;15.36;100.00;101992.09;10479764;28;20056;-68